createdAt,value
2019-05-18T00:00:38.216Z,23.13
2019-05-18T00:03:05.817Z,16.40
2019-05-18T00:05:34.298Z,17.97
2019-05-18T00:08:01.844Z,20.53
2019-05-18T00:10:31.202Z,19.10
2019-05-18T00:12:59.251Z,22.07
2019-05-18T00:15:27.954Z,23.77
2019-05-18T00:17:59.468Z,24.87
2019-05-18T00:20:26.872Z,24.17
2019-05-18T00:22:56.758Z,25.57
2019-05-18T00:25:29.678Z,23.63
2019-05-18T00:27:57.101Z,23.77
2019-05-18T00:30:25.009Z,24.00
2019-05-18T00:32:52.652Z,23.17
2019-05-18T00:35:21.177Z,21.77
2019-05-18T00:37:48.953Z,23.40
2019-05-18T00:40:17.666Z,21.37
2019-05-18T00:42:45.250Z,20.13
2019-05-18T00:45:15.492Z,25.90
2019-05-18T00:47:43.260Z,24.07
2019-05-18T00:50:10.940Z,23.40
2019-05-18T00:52:45.515Z,22.00
2019-05-18T00:55:15.642Z,20.90
2019-05-18T00:57:43.621Z,23.20
2019-05-18T01:00:11.127Z,20.47
2019-05-18T01:02:41.300Z,22.60
2019-05-18T01:05:08.855Z,22.97
2019-05-18T01:07:38.782Z,22.60
2019-05-18T01:10:06.539Z,23.23
2019-05-18T01:12:36.186Z,19.57
2019-05-18T01:15:05.036Z,20.40
2019-05-18T01:17:33.141Z,20.47
2019-05-18T01:20:04.975Z,18.57
2019-05-18T01:22:38.053Z,24.77
2019-05-18T01:25:05.791Z,24.60
2019-05-18T01:27:33.154Z,25.80
2019-05-18T01:30:06.813Z,21.47
2019-05-18T01:32:34.279Z,23.80
2019-05-18T01:35:02.135Z,21.73
2019-05-18T01:37:29.654Z,23.07
2019-05-18T01:39:58.851Z,22.80
2019-05-18T01:42:29.182Z,22.30
2019-05-18T01:44:58.046Z,19.97
2019-05-18T01:47:25.686Z,22.47
2019-05-18T01:49:55.670Z,23.83
2019-05-18T01:52:23.343Z,20.60
2019-05-18T01:54:54.074Z,22.73
2019-05-18T01:57:25.607Z,23.97
2019-05-18T01:59:53.281Z,23.43
2019-05-18T02:02:20.838Z,23.23
2019-05-18T02:04:49.621Z,23.93
2019-05-18T02:07:17.455Z,24.60
2019-05-18T02:09:45.102Z,23.37
2019-05-18T02:12:12.712Z,23.23
2019-05-18T02:14:40.283Z,24.97
2019-05-18T02:17:08.022Z,24.30
2019-05-18T02:19:37.729Z,24.03
2019-05-18T02:22:05.815Z,22.73
2019-05-18T02:24:33.360Z,23.33
2019-05-18T02:27:11.581Z,22.57
2019-05-18T02:29:41.165Z,24.07
2019-05-18T02:32:08.845Z,22.23
2019-05-18T02:34:37.397Z,25.37
2019-05-18T02:37:05.030Z,25.90
2019-05-18T02:39:32.681Z,25.53
2019-05-18T02:42:00.678Z,28.77
2019-05-18T02:44:28.210Z,25.97
2019-05-18T02:46:56.699Z,29.07
2019-05-18T02:49:24.307Z,26.97
2019-05-18T02:51:51.899Z,25.57
2019-05-18T02:54:19.363Z,24.40
2019-05-18T02:56:47.835Z,26.70
2019-05-18T02:59:15.335Z,27.33
2019-05-18T03:01:42.979Z,30.37
2019-05-18T03:04:10.547Z,27.10
2019-05-18T03:06:38.036Z,29.90
2019-05-18T03:09:05.782Z,27.40
2019-05-18T03:11:33.249Z,25.60
2019-05-18T03:14:00.441Z,29.50
2019-05-18T03:16:28.060Z,28.37
2019-05-18T03:19:07.309Z,25.67
2019-05-18T03:21:24.848Z,24.47
2019-05-18T03:23:53.286Z,23.03
2019-05-18T03:26:28.466Z,27.90
2019-05-18T03:28:57.138Z,26.30
2019-05-18T03:31:24.804Z,25.33
2019-05-18T03:33:59.173Z,27.07
2019-05-18T03:36:26.422Z,26.27
2019-05-18T03:38:56.255Z,27.83
2019-05-18T03:41:23.698Z,28.20
2019-05-18T03:43:51.157Z,27.97
2019-05-18T03:46:18.625Z,28.13
2019-05-18T03:48:46.216Z,24.87
2019-05-18T03:51:13.775Z,26.43
2019-05-18T03:53:42.128Z,25.77
2019-05-18T03:56:09.830Z,30.23
2019-05-18T03:58:38.161Z,27.17
2019-05-18T04:01:07.049Z,27.07
2019-05-18T04:03:34.538Z,26.93
2019-05-18T04:06:05.144Z,28.30
2019-05-18T04:08:35.408Z,31.60
2019-05-18T04:11:03.896Z,28.80
2019-05-18T04:13:32.021Z,29.30
2019-05-18T04:16:00.604Z,28.50
2019-05-18T04:18:28.192Z,29.80
2019-05-18T04:20:56.261Z,28.77
2019-05-18T04:23:25.148Z,26.57
2019-05-18T04:25:52.370Z,29.83
2019-05-18T04:28:19.977Z,29.37
2019-05-18T04:30:52.598Z,27.87
2019-05-18T04:33:21.116Z,27.70
2019-05-18T04:35:56.433Z,27.40
2019-05-18T04:38:24.149Z,27.13
2019-05-18T04:40:52.481Z,28.37
2019-05-18T04:43:20.189Z,27.30
2019-05-18T04:45:47.919Z,24.47
2019-05-18T04:48:17.420Z,29.67
2019-05-18T04:50:44.934Z,27.63
2019-05-18T04:53:14.626Z,28.83
2019-05-18T04:55:43.263Z,30.27
2019-05-18T04:58:10.824Z,30.70
2019-05-18T05:00:46.533Z,31.47
2019-05-18T05:03:14.133Z,30.90
2019-05-18T05:05:44.515Z,31.17
2019-05-18T05:08:11.987Z,31.63
2019-05-18T05:10:40.781Z,32.70
2019-05-18T05:13:08.319Z,33.70
2019-05-18T05:15:35.795Z,34.07
2019-05-18T05:18:06.713Z,32.33
2019-05-18T05:20:44.141Z,33.37
2019-05-18T05:23:12.895Z,34.13
2019-05-18T05:25:40.580Z,33.57
2019-05-18T05:28:14.572Z,31.90
2019-05-18T05:30:42.485Z,34.17
2019-05-18T05:33:13.321Z,34.07
2019-05-18T05:35:43.380Z,32.70
2019-05-18T05:38:14.855Z,34.20
2019-05-18T05:40:48.187Z,35.13
2019-05-18T05:43:22.866Z,34.63
2019-05-18T05:45:55.791Z,33.87
2019-05-18T05:48:28.673Z,33.33
2019-05-18T05:50:57.077Z,34.90
2019-05-18T05:53:28.205Z,36.13
2019-05-18T05:55:55.967Z,34.93
2019-05-18T05:58:29.310Z,36.13
2019-05-18T06:00:58.364Z,34.80
2019-05-18T06:03:27.977Z,37.47
2019-05-18T06:05:58.989Z,36.47
2019-05-18T06:08:26.639Z,39.13
2019-05-18T06:10:54.311Z,33.97
2019-05-18T06:13:21.798Z,35.87
2019-05-18T06:15:51.916Z,33.20
2019-05-18T06:18:19.575Z,35.47
2019-05-18T06:20:51.585Z,39.63
2019-05-18T06:23:16.846Z,38.40
2019-05-18T06:25:44.397Z,34.03
2019-05-18T06:28:12.070Z,35.20
2019-05-18T06:30:39.566Z,33.77
2019-05-18T06:33:07.284Z,36.53
2019-05-18T06:35:36.384Z,38.30
2019-05-18T06:38:06.149Z,34.87
2019-05-18T06:40:35.622Z,33.67
2019-05-18T06:43:03.826Z,30.50
2019-05-18T06:45:32.508Z,29.07
2019-05-18T06:48:00.232Z,30.90
2019-05-18T06:50:29.527Z,28.00
2019-05-18T06:52:57.316Z,28.40
2019-05-18T06:55:27.719Z,31.80
2019-05-18T06:57:59.052Z,30.07
2019-05-18T07:00:26.870Z,29.60
2019-05-18T07:02:54.453Z,31.50
2019-05-18T07:05:26.579Z,31.50
2019-05-18T07:07:57.518Z,33.10
2019-05-18T07:10:26.896Z,29.30
2019-05-18T07:12:56.414Z,28.77
2019-05-18T07:15:24.311Z,28.07
2019-05-18T07:17:52.196Z,30.37
2019-05-18T07:20:23.884Z,31.50
2019-05-18T07:22:51.506Z,30.77
2019-05-18T07:25:19.005Z,27.73
2019-05-18T07:27:48.614Z,28.50
2019-05-18T07:30:18.064Z,29.77
2019-05-18T07:32:45.563Z,28.07
2019-05-18T07:35:13.337Z,29.43
2019-05-18T07:37:40.755Z,28.23
2019-05-18T07:40:08.305Z,27.70
2019-05-18T07:42:35.934Z,26.30
2019-05-18T07:45:04.204Z,27.77
2019-05-18T07:47:33.817Z,26.50
2019-05-18T07:50:01.496Z,26.20
2019-05-18T07:52:33.158Z,28.70
2019-05-18T07:55:00.902Z,27.90
2019-05-18T07:57:31.187Z,24.93
2019-05-18T07:59:59.550Z,29.23
2019-05-18T08:02:27.053Z,26.97
2019-05-18T08:04:54.797Z,25.30
2019-05-18T08:07:22.742Z,26.27
2019-05-18T08:09:51.294Z,27.90
2019-05-18T08:12:46.538Z,25.97
2019-05-18T08:15:15.462Z,28.33
2019-05-18T08:17:46.482Z,27.33
2019-05-18T08:20:14.724Z,27.83
2019-05-18T08:22:42.264Z,25.80
2019-05-18T08:25:09.900Z,26.00
2019-05-18T08:27:37.679Z,25.30
2019-05-18T08:30:09.016Z,24.00
2019-05-18T08:32:38.231Z,21.97
2019-05-18T08:35:06.432Z,24.50
2019-05-18T08:37:35.965Z,21.63
2019-05-18T08:40:04.219Z,24.10
2019-05-18T08:42:33.251Z,26.00
2019-05-18T08:45:04.040Z,23.83
2019-05-18T08:47:31.784Z,23.67
2019-05-18T08:49:59.475Z,24.70
2019-05-18T08:52:30.085Z,22.63
2019-05-18T08:54:58.470Z,24.10
2019-05-18T08:57:33.272Z,24.80
2019-05-18T09:00:02.962Z,23.27
2019-05-18T09:02:30.768Z,22.33
2019-05-18T09:04:59.818Z,22.73
2019-05-18T09:07:31.485Z,24.83
2019-05-18T09:10:01.388Z,22.37
2019-05-18T09:12:32.113Z,23.40
2019-05-18T09:14:59.629Z,22.73
2019-05-18T09:17:27.257Z,21.60
2019-05-18T09:20:04.378Z,22.43
2019-05-18T09:22:38.763Z,23.43
2019-05-18T09:25:06.359Z,23.13
2019-05-18T09:27:34.911Z,23.23
2019-05-18T09:30:09.066Z,19.33
2019-05-18T09:32:41.305Z,20.33
2019-05-18T09:35:09.807Z,19.57
2019-05-18T09:37:38.243Z,21.17
2019-05-18T09:40:13.550Z,20.00
2019-05-18T09:42:41.140Z,20.57
2019-05-18T09:45:12.185Z,22.07
2019-05-18T09:47:40.001Z,22.67
2019-05-18T09:50:07.666Z,22.20
2019-05-18T09:52:45.331Z,20.13
2019-05-18T09:55:12.307Z,21.17
2019-05-18T09:57:39.744Z,19.70
2019-05-18T10:00:08.308Z,20.83
2019-05-18T10:02:35.792Z,23.90
2019-05-18T10:05:03.856Z,22.87
2019-05-18T10:07:35.931Z,22.50
2019-05-18T10:10:05.255Z,23.70
2019-05-18T10:12:45.767Z,24.90
2019-05-18T10:15:26.701Z,25.27
2019-05-18T10:17:59.133Z,25.53
2019-05-18T10:20:28.580Z,22.07
2019-05-18T10:26:43.031Z,24.90
2019-05-18T10:29:52.621Z,24.07
2019-05-18T10:33:21.334Z,22.03
2019-05-18T10:36:49.854Z,23.10
2019-05-18T10:39:21.800Z,21.90
2019-05-18T10:41:58.595Z,24.20
2019-05-18T10:44:40.062Z,22.03
2019-05-18T10:47:11.862Z,22.10
2019-05-18T10:49:42.533Z,29.40
2019-05-18T10:52:34.177Z,23.27
2019-05-18T10:55:22.349Z,25.40
2019-05-18T10:58:01.629Z,27.03
2019-05-18T11:00:39.574Z,23.00
2019-05-18T11:03:40.359Z,23.97
2019-05-18T11:06:28.057Z,21.80
2019-05-18T11:09:57.416Z,21.80
2019-05-18T11:12:53.116Z,22.00
2019-05-18T11:15:24.088Z,26.03
2019-05-18T11:17:57.508Z,23.43
2019-05-18T11:20:25.229Z,26.60
2019-05-18T11:23:02.643Z,22.23
2019-05-18T11:25:30.916Z,21.67
2019-05-18T11:28:00.556Z,21.90
2019-05-18T11:30:33.346Z,26.03
2019-05-18T11:33:02.373Z,22.63
2019-05-18T11:35:30.785Z,26.67
2019-05-18T11:37:58.977Z,24.20
2019-05-18T11:40:28.496Z,19.10
2019-05-18T11:42:59.032Z,20.87
2019-05-18T11:45:30.876Z,21.43
2019-05-18T11:47:58.436Z,21.63
2019-05-18T11:50:33.179Z,22.93
2019-05-18T11:53:01.498Z,22.50
2019-05-18T11:55:36.648Z,22.60
2019-05-18T11:58:04.793Z,22.90
2019-05-18T12:00:34.187Z,21.63
2019-05-18T12:03:02.671Z,22.10
2019-05-18T12:05:31.453Z,22.23
2019-05-18T12:08:01.328Z,23.13
2019-05-18T12:10:28.946Z,25.90
2019-05-18T12:13:00.482Z,22.70
2019-05-18T12:15:28.787Z,22.47
2019-05-18T12:17:56.122Z,21.40
2019-05-18T12:20:24.088Z,24.33
2019-05-18T12:22:52.780Z,22.13
2019-05-18T12:25:21.534Z,23.40
2019-05-18T12:27:50.010Z,22.30
2019-05-18T12:30:17.507Z,23.50
2019-05-18T12:32:45.655Z,23.70
2019-05-18T12:35:14.393Z,23.90
2019-05-18T12:37:42.163Z,24.83
2019-05-18T12:40:13.851Z,22.70
2019-05-18T12:42:41.311Z,23.27
2019-05-18T12:45:09.085Z,26.20
2019-05-18T12:47:37.080Z,22.30
2019-05-18T12:50:06.275Z,21.23
2019-05-18T12:52:34.952Z,20.37
2019-05-18T12:55:06.357Z,21.00
2019-05-18T12:57:36.982Z,20.70
2019-05-18T13:00:07.157Z,22.07
2019-05-18T13:02:35.041Z,23.53
2019-05-18T13:05:05.946Z,21.40
2019-05-18T13:07:36.342Z,19.87
2019-05-18T13:10:04.995Z,20.17
2019-05-18T13:12:33.141Z,19.70
2019-05-18T13:15:03.719Z,18.87
2019-05-18T13:17:31.478Z,19.00
2019-05-18T13:19:59.446Z,23.93
2019-05-18T13:22:28.354Z,21.03
2019-05-18T13:24:58.441Z,19.87
2019-05-18T13:27:38.864Z,21.13
2019-05-18T13:30:00.052Z,22.20
2019-05-18T13:32:28.449Z,21.23
2019-05-18T13:34:56.401Z,22.43
2019-05-18T13:37:25.174Z,20.90
2019-05-18T13:39:53.178Z,23.07
2019-05-18T13:42:21.004Z,19.63
2019-05-18T13:44:48.510Z,18.90
2019-05-18T13:47:20.324Z,21.57
2019-05-18T13:49:51.035Z,18.73
2019-05-18T13:52:18.884Z,18.00
2019-05-18T13:55:02.179Z,16.57
2019-05-18T13:57:29.897Z,21.63
2019-05-18T14:00:13.646Z,16.93
2019-05-18T14:02:40.409Z,30.50
2019-05-18T14:05:09.797Z,18.63
2019-05-18T14:07:38.699Z,21.10
2019-05-18T14:10:07.393Z,27.33
2019-05-18T14:12:38.351Z,21.77
2019-05-18T14:15:07.825Z,20.60
2019-05-18T14:17:36.642Z,25.60
2019-05-18T14:20:04.182Z,23.90
2019-05-18T14:22:46.384Z,23.87
2019-05-18T14:25:19.755Z,24.33
2019-05-18T14:27:53.684Z,24.53
2019-05-18T14:30:23.192Z,23.50
2019-05-18T14:32:50.731Z,25.93
2019-05-18T14:35:19.979Z,28.47
2019-05-18T14:37:48.895Z,24.00
2019-05-18T14:40:16.620Z,24.40
2019-05-18T14:42:44.065Z,26.70
2019-05-18T14:45:11.637Z,25.67
2019-05-18T14:47:52.585Z,28.37
2019-05-18T14:50:20.489Z,24.67
2019-05-18T14:52:48.355Z,31.30
2019-05-18T14:55:16.608Z,27.13
2019-05-18T14:57:44.259Z,29.83
2019-05-18T15:00:11.865Z,30.80
2019-05-18T15:02:40.036Z,39.67
2019-05-18T15:05:07.770Z,44.87
2019-05-18T15:07:35.570Z,39.47
2019-05-18T15:10:08.148Z,36.40
2019-05-18T15:12:42.697Z,39.47
2019-05-18T15:15:10.267Z,41.90
2019-05-18T15:17:41.413Z,31.33
2019-05-18T15:20:09.095Z,28.23
2019-05-18T15:22:36.640Z,24.47
2019-05-18T15:25:04.334Z,31.50
2019-05-18T15:27:34.021Z,29.53
2019-05-18T15:30:02.026Z,32.07
2019-05-18T15:32:33.161Z,32.83
2019-05-18T15:35:03.517Z,31.63
2019-05-18T15:37:30.997Z,30.73
2019-05-18T15:39:58.604Z,34.73
2019-05-18T15:42:31.403Z,32.27
2019-05-18T15:45:04.414Z,35.43
2019-05-18T15:47:41.714Z,34.33
2019-05-18T15:50:09.402Z,36.60
2019-05-18T15:52:37.823Z,34.63
2019-05-18T15:55:05.460Z,31.07
2019-05-18T15:57:33.915Z,34.07
2019-05-18T16:00:01.226Z,32.73
2019-05-18T16:02:28.847Z,32.73
2019-05-18T16:04:56.481Z,32.90
2019-05-18T16:07:23.979Z,32.13
2019-05-18T16:09:51.626Z,38.77
2019-05-18T16:12:19.145Z,32.60
2019-05-18T16:14:49.868Z,32.00
2019-05-18T16:17:17.272Z,37.17
2019-05-18T16:19:44.400Z,33.87
2019-05-18T16:22:18.823Z,33.30
2019-05-18T16:24:46.875Z,32.50
2019-05-18T16:27:15.392Z,32.07
2019-05-18T16:29:42.954Z,30.97
2019-05-18T16:32:17.193Z,27.00
2019-05-18T16:34:44.783Z,27.83
2019-05-18T16:37:14.263Z,29.33
2019-05-18T16:39:41.717Z,26.47
2019-05-18T16:42:10.484Z,28.97
2019-05-18T16:44:39.267Z,28.20
2019-05-18T16:47:06.744Z,27.63
2019-05-18T16:49:34.890Z,26.90
2019-05-18T16:52:02.465Z,27.60
2019-05-18T16:54:32.527Z,27.00
2019-05-18T16:57:00.144Z,28.47
2019-05-18T16:59:27.577Z,30.20
2019-05-18T17:01:59.444Z,32.70
2019-05-18T17:04:26.814Z,35.60
2019-05-18T17:06:55.583Z,34.27
2019-05-18T17:09:23.196Z,37.27
2019-05-18T17:11:51.658Z,33.53
2019-05-18T17:14:19.102Z,38.93
2019-05-18T17:16:47.121Z,39.60
2019-05-18T17:19:15.654Z,54.60
2019-05-18T17:21:43.376Z,40.57
2019-05-18T17:24:18.468Z,40.10
2019-05-18T17:26:52.841Z,39.73
2019-05-18T17:29:18.113Z,41.67
2019-05-18T17:31:46.097Z,37.57
2019-05-18T17:34:16.210Z,41.20
2019-05-18T17:36:46.966Z,42.90
2019-05-18T17:39:15.579Z,42.03
2019-05-18T17:41:44.485Z,45.93
2019-05-18T17:44:12.509Z,43.77
2019-05-18T17:46:44.989Z,46.70
2019-05-18T17:49:25.862Z,43.00
2019-05-18T17:51:44.237Z,41.80
2019-05-18T17:54:11.782Z,45.43
2019-05-18T17:56:39.282Z,45.83
2019-05-18T17:59:07.716Z,46.70
2019-05-18T18:02:25.034Z,46.70
2019-05-18T18:04:54.157Z,49.00
2019-05-18T18:07:22.850Z,47.57
2019-05-18T18:09:51.499Z,49.17
2019-05-18T18:12:22.507Z,48.93
2019-05-18T18:15:00.172Z,47.23
2019-05-18T18:17:28.380Z,49.33
2019-05-18T18:20:00.963Z,48.97
2019-05-18T18:22:28.464Z,48.47
2019-05-18T18:24:58.087Z,49.23
2019-05-18T18:27:29.716Z,46.33
2019-05-18T18:30:05.188Z,45.43
2019-05-18T18:32:34.109Z,50.70
2019-05-18T18:35:06.039Z,48.17
2019-05-18T18:37:34.673Z,48.33
2019-05-18T18:40:03.872Z,49.87
2019-05-18T18:42:33.172Z,46.40
2019-05-18T18:45:01.016Z,48.37
2019-05-18T18:47:29.509Z,49.10
2019-05-18T18:49:57.107Z,47.27
2019-05-18T18:52:24.915Z,50.23
2019-05-18T18:54:52.685Z,48.13
2019-05-18T18:57:20.739Z,43.97
2019-05-18T18:59:51.335Z,48.87
2019-05-18T19:02:19.998Z,46.97
2019-05-18T19:04:51.518Z,44.43
2019-05-18T19:07:25.066Z,48.97
2019-05-18T19:09:52.727Z,45.77
2019-05-18T19:12:20.637Z,46.10
2019-05-18T19:14:49.467Z,46.47
2019-05-18T19:17:25.504Z,47.30
2019-05-18T19:19:53.091Z,49.60
2019-05-18T19:22:21.092Z,48.07
2019-05-18T19:24:51.771Z,47.53
2019-05-18T19:27:19.152Z,51.50
2019-05-18T19:29:46.795Z,51.67
2019-05-18T19:32:14.824Z,51.90
2019-05-18T19:34:42.502Z,52.10
2019-05-18T19:37:13.317Z,52.53
2019-05-18T19:39:45.171Z,48.33
2019-05-18T19:42:13.359Z,49.70
2019-05-18T19:44:41.573Z,45.90
2019-05-18T19:47:10.099Z,46.97
2019-05-18T19:49:37.797Z,51.50
2019-05-18T19:52:06.213Z,52.70
2019-05-18T19:54:33.910Z,50.47
2019-05-18T19:57:01.460Z,49.13
2019-05-18T19:59:29.991Z,50.83
2019-05-18T20:01:57.646Z,51.83
2019-05-18T20:04:25.364Z,51.30
2019-05-18T20:06:54.142Z,52.40
2019-05-18T20:09:22.187Z,53.07
2019-05-18T20:11:49.865Z,45.47
2019-05-18T20:14:17.333Z,54.40
2019-05-18T20:16:45.140Z,49.63
2019-05-18T20:19:14.421Z,51.47
2019-05-18T20:21:42.203Z,53.50
2019-05-18T20:24:09.978Z,50.00
2019-05-18T20:26:37.404Z,51.87
2019-05-18T20:29:05.279Z,51.00
2019-05-18T20:31:33.312Z,51.50
2019-05-18T20:34:01.228Z,56.70
2019-05-18T20:36:29.430Z,49.93
2019-05-18T20:38:57.936Z,52.30
2019-05-18T20:41:25.657Z,51.27
2019-05-18T20:43:53.235Z,49.83
2019-05-18T20:46:20.992Z,54.50
2019-05-18T20:48:48.710Z,57.07
2019-05-18T20:51:16.907Z,52.70
2019-05-18T20:55:04.874Z,51.90
2019-05-18T20:57:33.370Z,48.53
2019-05-18T21:00:01.428Z,48.57
2019-05-18T21:02:31.511Z,51.17
2019-05-18T21:04:59.798Z,53.00
2019-05-18T21:07:27.345Z,51.73
2019-05-18T21:09:55.542Z,51.90
2019-05-18T21:12:23.197Z,50.47
2019-05-18T21:14:51.141Z,47.43
2019-05-18T21:17:19.447Z,51.80
2019-05-18T21:19:47.140Z,57.60
2019-05-18T21:22:14.771Z,51.63
2019-05-18T21:24:43.215Z,57.20
2019-05-18T21:27:11.266Z,48.33
2019-05-18T21:29:44.532Z,59.23
2019-05-18T21:32:14.294Z,56.47
2019-05-18T21:34:42.366Z,58.83
2019-05-18T21:37:09.758Z,53.43
2019-05-18T21:39:37.371Z,51.17
2019-05-18T21:42:05.649Z,56.90
2019-05-18T21:44:33.018Z,53.20
2019-05-18T21:47:00.677Z,60.93
2019-05-18T21:49:28.395Z,59.00
2019-05-18T21:51:56.761Z,58.67
2019-05-18T21:54:26.228Z,57.37
2019-05-18T21:56:54.543Z,53.90
2019-05-18T21:59:23.318Z,58.53
2019-05-18T22:01:50.710Z,57.60
2019-05-18T22:04:18.099Z,57.40
2019-05-18T22:06:48.992Z,51.17
2019-05-18T22:09:16.790Z,55.67
2019-05-18T22:11:44.063Z,54.03
2019-05-18T22:14:13.560Z,54.37
2019-05-18T22:16:42.080Z,57.57
2019-05-18T22:19:09.545Z,55.40
2019-05-18T22:21:39.659Z,52.83
2019-05-18T22:24:07.271Z,56.57
2019-05-18T22:26:36.278Z,52.77
2019-05-18T22:29:04.234Z,56.13
2019-05-18T22:31:32.308Z,54.23
2019-05-18T22:34:00.049Z,58.20
2019-05-18T22:36:27.708Z,45.93
2019-05-18T22:38:56.463Z,62.20
2019-05-18T22:41:25.175Z,56.80
2019-05-18T22:43:53.647Z,53.97
2019-05-18T22:46:22.780Z,67.37
2019-05-18T22:48:51.373Z,58.20
2019-05-18T22:51:19.043Z,57.97
2019-05-18T22:53:47.871Z,55.03
2019-05-18T22:56:15.338Z,57.90
2019-05-18T22:58:43.822Z,52.50
2019-05-18T23:01:11.480Z,58.63
2019-05-18T23:03:51.884Z,58.23
2019-05-18T23:06:19.547Z,54.03
2019-05-18T23:08:47.878Z,53.90
2019-05-18T23:11:16.549Z,55.20
2019-05-18T23:13:44.219Z,57.17
2019-05-18T23:16:13.116Z,57.47
2019-05-18T23:18:55.641Z,57.03
2019-05-18T23:21:11.511Z,53.00
2019-05-18T23:23:39.724Z,52.13
2019-05-18T23:26:11.631Z,60.87
2019-05-18T23:28:42.284Z,55.83
2019-05-18T23:31:10.033Z,54.97
2019-05-18T23:33:48.447Z,61.17
2019-05-18T23:36:16.242Z,50.07
2019-05-18T23:38:50.230Z,60.30
2019-05-18T23:41:18.981Z,59.63
2019-05-18T23:43:48.568Z,62.27
2019-05-18T23:46:17.240Z,60.47
2019-05-18T23:48:48.040Z,61.13
2019-05-18T23:51:16.283Z,59.97
2019-05-18T23:53:49.662Z,61.27
2019-05-18T23:56:18.454Z,66.03
2019-05-18T23:58:46.472Z,48.97
